createdAt,value
2018-12-12T00:00:32.516Z,87.30
2018-12-12T00:01:31.503Z,87.40
2018-12-12T00:02:31.408Z,87.51
2018-12-12T00:03:31.648Z,87.55
2018-12-12T00:04:31.538Z,87.13
2018-12-12T00:05:31.452Z,87.51
2018-12-12T00:07:55.511Z,87.61
2018-12-12T00:08:55.435Z,86.78
2018-12-12T00:09:55.641Z,86.78
2018-12-12T00:10:55.208Z,86.68
2018-12-12T00:11:55.120Z,87.09
2018-12-12T00:12:55.651Z,86.78
2018-12-12T00:13:55.552Z,86.78
2018-12-12T00:14:55.149Z,86.68
2018-12-12T00:15:55.362Z,86.68
2018-12-12T00:16:55.265Z,86.72
2018-12-12T00:17:56.096Z,86.88
2018-12-12T00:18:55.391Z,87.09
2018-12-12T00:19:55.717Z,87.09
2018-12-12T00:20:55.200Z,87.09
2018-12-12T00:23:17.780Z,87.30
2018-12-12T00:24:17.635Z,87.30
2018-12-12T00:25:17.712Z,87.30
2018-12-12T00:26:17.445Z,87.09
2018-12-12T00:27:17.352Z,86.88
2018-12-12T00:28:17.719Z,87.09
2018-12-12T00:29:17.737Z,87.09
2018-12-12T00:30:17.372Z,87.51
2018-12-12T00:31:17.896Z,87.30
2018-12-12T00:32:17.492Z,87.51
2018-12-12T00:33:17.391Z,87.09
2018-12-12T00:34:17.603Z,87.30
2018-12-12T00:35:18.121Z,87.19
2018-12-12T00:36:17.410Z,87.92
2018-12-12T00:38:40.778Z,87.51
2018-12-12T00:39:40.487Z,87.57
2018-12-12T00:40:40.380Z,87.05
2018-12-12T00:41:40.289Z,87.57
2018-12-12T00:42:40.498Z,87.40
2018-12-12T00:43:40.400Z,87.47
2018-12-12T00:44:40.728Z,86.95
2018-12-12T00:45:40.225Z,87.57
2018-12-12T00:46:40.430Z,87.37
2018-12-12T00:47:40.336Z,87.37
2018-12-12T00:48:42.083Z,87.88
2018-12-12T00:49:40.151Z,87.68
2018-12-12T00:50:40.359Z,87.88
2018-12-12T00:51:40.267Z,88.61
2018-12-12T00:54:03.726Z,88.71
2018-12-12T00:55:03.668Z,88.51
2018-12-12T00:56:03.539Z,88.82
2018-12-12T00:57:04.682Z,88.82
2018-12-12T00:58:03.661Z,88.71
2018-12-12T00:59:03.555Z,88.61
2018-12-12T01:00:03.760Z,88.71
2018-12-12T01:01:03.681Z,87.99
2018-12-12T01:02:03.587Z,88.82
2018-12-12T01:03:03.793Z,88.71
2018-12-12T01:04:03.754Z,88.82
2018-12-12T01:05:03.611Z,88.20
2018-12-12T01:06:03.756Z,87.99
2018-12-12T01:07:03.722Z,88.20
2018-12-12T01:09:17.792Z,88.82
2018-12-12T01:10:16.768Z,87.99
2018-12-12T01:11:16.766Z,88.71
2018-12-12T01:12:16.762Z,88.46
2018-12-12T01:13:16.664Z,88.15
2018-12-12T01:14:16.567Z,88.78
2018-12-12T01:15:17.086Z,88.98
2018-12-12T01:16:16.695Z,88.51
2018-12-12T01:17:16.592Z,88.67
2018-12-12T01:18:16.501Z,88.51
2018-12-12T01:19:16.712Z,88.61
2018-12-12T01:20:16.776Z,88.51
2018-12-12T01:21:16.778Z,88.20
2018-12-12T01:22:16.742Z,88.40
2018-12-12T01:24:28.829Z,88.67
2018-12-12T01:25:28.741Z,88.51
2018-12-12T01:26:28.637Z,88.36
2018-12-12T01:27:28.851Z,88.92
2018-12-12T01:28:28.764Z,88.78
2018-12-12T01:29:28.816Z,89.03
2018-12-12T01:30:28.775Z,89.09
2018-12-12T01:31:28.783Z,88.82
2018-12-12T01:32:28.800Z,88.61
2018-12-12T01:33:28.807Z,88.51
2018-12-12T01:34:29.124Z,88.98
2018-12-12T01:35:28.811Z,88.36
2018-12-12T01:36:28.648Z,89.09
2018-12-12T01:37:28.803Z,88.78
2018-12-12T01:39:40.816Z,89.19
2018-12-12T01:40:41.472Z,89.29
2018-12-12T01:41:40.788Z,89.61
2018-12-12T01:42:40.796Z,89.40
2018-12-12T01:43:40.789Z,89.61
2018-12-12T01:44:40.764Z,89.40
2018-12-12T01:45:40.797Z,89.81
2018-12-12T01:46:40.569Z,89.29
2018-12-12T01:47:40.796Z,90.02
2018-12-12T01:48:40.697Z,89.71
2018-12-12T01:49:40.603Z,89.61
2018-12-12T01:50:41.120Z,90.02
2018-12-12T01:51:40.829Z,90.33
2018-12-12T01:52:40.617Z,89.81
2018-12-12T01:54:50.552Z,90.02
2018-12-12T01:55:50.808Z,89.46
2018-12-12T01:56:50.675Z,89.40
2018-12-12T01:57:50.816Z,89.87
2018-12-12T01:58:50.487Z,89.40
2018-12-12T01:59:50.394Z,89.04
2018-12-12T02:00:50.811Z,88.94
2018-12-12T02:01:50.527Z,89.15
2018-12-12T02:02:50.821Z,89.19
2018-12-12T02:03:50.316Z,89.19
2018-12-12T02:04:50.553Z,88.94
2018-12-12T02:05:50.135Z,89.04
2018-12-12T02:06:50.347Z,89.04
2018-12-12T02:07:50.250Z,88.94
2018-12-12T02:10:02.934Z,89.04
2018-12-12T02:11:03.821Z,89.15
2018-12-12T02:12:02.907Z,89.40
2018-12-12T02:13:02.887Z,89.50
2018-12-12T02:14:02.873Z,89.40
2018-12-12T02:15:02.862Z,90.02
2018-12-12T02:16:02.847Z,90.12
2018-12-12T02:17:02.855Z,90.64
2018-12-12T02:18:03.117Z,90.85
2018-12-12T02:19:02.856Z,90.64
2018-12-12T02:20:02.833Z,90.44
2018-12-12T02:21:03.143Z,90.02
2018-12-12T02:22:03.053Z,90.02
2018-12-12T02:23:02.846Z,90.19
2018-12-12T02:25:26.872Z,89.67
2018-12-12T02:26:27.844Z,89.15
2018-12-12T02:27:26.835Z,89.36
2018-12-12T02:28:26.846Z,89.50
2018-12-12T02:29:26.649Z,89.36
2018-12-12T02:30:26.858Z,89.04
2018-12-12T02:31:26.863Z,89.19
2018-12-12T02:32:26.669Z,89.04
2018-12-12T02:33:26.575Z,88.94
2018-12-12T02:34:26.791Z,88.63
2018-12-12T02:35:26.706Z,89.15
2018-12-12T02:36:26.597Z,88.84
2018-12-12T02:37:26.808Z,88.63
2018-12-12T02:38:26.735Z,89.15
2018-12-12T02:40:36.671Z,88.94
2018-12-12T02:41:36.565Z,89.15
2018-12-12T02:42:36.774Z,88.21
2018-12-12T02:43:36.390Z,88.42
2018-12-12T02:44:36.279Z,88.73
2018-12-12T02:45:36.492Z,88.94
2018-12-12T02:46:36.396Z,89.04
2018-12-12T02:47:36.297Z,88.94
2018-12-12T02:48:36.815Z,89.15
2018-12-12T02:49:36.423Z,88.98
2018-12-12T02:50:36.629Z,89.19
2018-12-12T02:51:36.223Z,89.36
2018-12-12T02:52:36.449Z,90.23
2018-12-12T02:53:36.344Z,90.02
2018-12-12T02:56:09.650Z,90.54
2018-12-12T02:57:09.871Z,90.33
2018-12-12T02:58:09.456Z,90.85
2018-12-12T02:59:09.358Z,90.85
2018-12-12T03:00:09.272Z,90.64
2018-12-12T03:01:09.476Z,91.37
2018-12-12T03:02:09.689Z,91.27
2018-12-12T03:03:09.286Z,91.47
2018-12-12T03:04:09.521Z,91.47
2018-12-12T03:05:09.217Z,91.16
2018-12-12T03:06:09.887Z,90.75
2018-12-12T03:07:09.228Z,90.75
2018-12-12T03:08:09.900Z,91.06
2018-12-12T03:09:09.351Z,91.16
2018-12-12T03:11:22.923Z,91.06
2018-12-12T03:12:22.884Z,90.64
2018-12-12T03:13:22.893Z,90.44
2018-12-12T03:14:22.677Z,90.29
2018-12-12T03:15:22.898Z,90.08
2018-12-12T03:16:22.801Z,89.87
2018-12-12T03:17:22.712Z,90.50
2018-12-12T03:18:23.560Z,90.85
2018-12-12T03:19:22.926Z,89.92
2018-12-12T03:20:22.895Z,90.33
2018-12-12T03:21:22.636Z,90.23
2018-12-12T03:22:22.858Z,90.33
2018-12-12T03:23:22.756Z,90.33
2018-12-12T03:24:22.909Z,90.12
2018-12-12T03:26:34.935Z,90.02
2018-12-12T03:27:34.921Z,89.81
2018-12-12T03:28:34.873Z,89.71
2018-12-12T03:29:34.775Z,90.02
2018-12-12T03:30:34.993Z,89.40
2018-12-12T03:31:34.904Z,89.56
2018-12-12T03:32:34.801Z,89.46
2018-12-12T03:33:34.701Z,89.04
2018-12-12T03:34:34.601Z,89.19
2018-12-12T03:35:34.920Z,89.15
2018-12-12T03:36:34.924Z,89.56
2018-12-12T03:37:34.935Z,89.36
2018-12-12T03:38:34.844Z,88.94
2018-12-12T03:39:34.751Z,88.94
2018-12-12T03:40:34.647Z,89.25
2018-12-12T03:42:46.961Z,89.04
2018-12-12T03:43:46.921Z,89.04
2018-12-12T03:44:46.922Z,88.94
2018-12-12T03:45:46.765Z,88.73
2018-12-12T03:46:46.672Z,88.67
2018-12-12T03:47:46.879Z,88.67
2018-12-12T03:48:46.919Z,88.53
2018-12-12T03:49:46.918Z,88.53
2018-12-12T03:50:46.911Z,88.42
2018-12-12T03:51:46.820Z,88.32
2018-12-12T03:52:46.714Z,88.11
2018-12-12T03:53:47.053Z,88.53
2018-12-12T03:54:46.941Z,88.32
2018-12-12T03:55:46.935Z,88.42
2018-12-12T03:57:59.755Z,88.53
2018-12-12T03:59:00.273Z,88.53
2018-12-12T03:59:59.868Z,88.53
2018-12-12T04:00:59.775Z,88.53
2018-12-12T04:01:59.681Z,88.69
2018-12-12T04:02:59.894Z,88.73
2018-12-12T04:03:59.934Z,88.53
2018-12-12T04:04:59.966Z,88.53
2018-12-12T04:05:59.911Z,88.57
2018-12-12T04:06:59.818Z,88.11
2018-12-12T04:07:59.721Z,88.78
2018-12-12T04:08:59.626Z,88.63
2018-12-12T04:09:59.950Z,88.53
2018-12-12T04:10:59.754Z,88.53
2018-12-12T04:13:24.980Z,88.84
2018-12-12T04:14:24.958Z,88.88
2018-12-12T04:15:25.782Z,89.09
2018-12-12T04:16:24.697Z,88.88
2018-12-12T04:17:24.988Z,88.88
2018-12-12T04:18:24.898Z,88.78
2018-12-12T04:19:24.793Z,89.04
2018-12-12T04:20:24.702Z,88.57
2018-12-12T04:21:24.918Z,88.46
2018-12-12T04:22:24.824Z,88.63
2018-12-12T04:23:25.005Z,88.53
2018-12-12T04:24:24.645Z,88.63
2018-12-12T04:25:24.854Z,88.36
2018-12-12T04:26:24.760Z,88.42
2018-12-12T04:28:36.962Z,88.63
2018-12-12T04:29:36.747Z,87.90
2018-12-12T04:30:36.969Z,87.90
2018-12-12T04:31:36.989Z,88.21
2018-12-12T04:32:37.005Z,87.90
2018-12-12T04:33:36.959Z,87.38
2018-12-12T04:34:36.983Z,87.70
2018-12-12T04:35:36.499Z,87.90
2018-12-12T04:36:36.707Z,87.70
2018-12-12T04:37:36.608Z,87.49
2018-12-12T04:38:37.014Z,87.90
2018-12-12T04:39:36.723Z,88.78
2018-12-12T04:40:37.010Z,88.46
2018-12-12T04:41:36.980Z,88.36
2018-12-12T04:43:49.031Z,88.46
2018-12-12T04:44:48.971Z,88.46
2018-12-12T04:45:48.740Z,88.78
2018-12-12T04:46:48.652Z,88.57
2018-12-12T04:47:50.887Z,88.57
2018-12-12T04:48:48.761Z,88.05
2018-12-12T04:49:49.002Z,88.78
2018-12-12T04:50:48.990Z,88.78
2018-12-12T04:51:48.792Z,88.67
2018-12-12T04:52:48.706Z,88.71
2018-12-12T04:53:48.619Z,87.68
2018-12-12T04:54:48.503Z,87.78
2018-12-12T04:55:48.985Z,87.68
2018-12-12T04:56:48.648Z,87.63
2018-12-12T04:59:00.718Z,87.74
2018-12-12T05:00:00.643Z,87.74
2018-12-12T05:01:00.835Z,87.26
2018-12-12T05:02:00.429Z,87.37
2018-12-12T05:03:01.409Z,87.32
2018-12-12T05:04:00.860Z,87.01
2018-12-12T05:05:00.451Z,87.43
2018-12-12T05:06:00.361Z,87.26
2018-12-12T05:07:00.873Z,87.57
2018-12-12T05:08:00.475Z,87.05
2018-12-12T05:09:01.000Z,87.37
2018-12-12T05:10:00.607Z,87.37
2018-12-12T05:11:00.500Z,87.16
2018-12-12T05:12:00.404Z,87.37
2018-12-12T05:14:13.033Z,87.16
2018-12-12T05:15:13.008Z,86.95
2018-12-12T05:16:12.922Z,85.50
2018-12-12T05:17:13.006Z,85.19
2018-12-12T05:18:13.018Z,85.50
2018-12-12T05:19:12.945Z,85.85
2018-12-12T05:20:13.030Z,86.33
2018-12-12T05:21:13.016Z,86.22
2018-12-12T05:22:12.990Z,85.60
2018-12-12T05:23:13.036Z,86.22
2018-12-12T05:24:12.792Z,86.36
2018-12-12T05:25:12.696Z,86.64
2018-12-12T05:26:12.932Z,86.22
2018-12-12T05:27:12.814Z,86.95
2018-12-12T05:29:24.904Z,86.33
2018-12-12T05:30:24.818Z,86.33
2018-12-12T05:31:24.712Z,86.02
2018-12-12T05:32:24.611Z,85.53
2018-12-12T05:33:24.521Z,85.95
2018-12-12T05:34:25.020Z,85.60
2018-12-12T05:35:24.643Z,86.47
2018-12-12T05:36:24.549Z,86.54
2018-12-12T05:37:24.765Z,86.43
2018-12-12T05:38:24.664Z,86.78
2018-12-12T05:39:24.574Z,86.95
2018-12-12T05:40:25.191Z,86.95
2018-12-12T05:41:24.683Z,86.88
2018-12-12T05:42:24.592Z,86.78
2018-12-12T05:44:48.978Z,86.99
2018-12-12T05:45:48.077Z,87.13
2018-12-12T05:46:47.868Z,86.93
2018-12-12T05:47:47.769Z,86.82
2018-12-12T05:48:47.680Z,87.13
2018-12-12T05:49:47.885Z,87.24
2018-12-12T05:50:48.054Z,87.13
2018-12-12T05:51:47.705Z,87.34
2018-12-12T05:52:47.903Z,87.69
2018-12-12T05:53:47.811Z,88.10
2018-12-12T05:54:47.746Z,88.10
2018-12-12T05:55:47.624Z,88.10
2018-12-12T05:56:52.327Z,88.73
2018-12-12T05:57:47.759Z,88.52
2018-12-12T06:00:01.062Z,88.77
2018-12-12T06:01:00.970Z,88.56
2018-12-12T06:02:01.081Z,88.42
2018-12-12T06:03:00.775Z,89.18
2018-12-12T06:04:01.054Z,89.08
2018-12-12T06:05:00.901Z,89.29
2018-12-12T06:06:01.070Z,89.50
2018-12-12T06:07:00.714Z,89.29
2018-12-12T06:08:00.921Z,89.08
2018-12-12T06:09:01.114Z,88.87
2018-12-12T06:10:00.737Z,88.87
2018-12-12T06:11:00.639Z,89.39
2018-12-12T06:12:00.854Z,89.18
2018-12-12T06:13:01.065Z,89.50
2018-12-12T06:15:26.078Z,89.50
2018-12-12T06:16:24.740Z,89.60
2018-12-12T06:17:24.644Z,89.18
2018-12-12T06:18:24.551Z,89.39
2018-12-12T06:19:25.105Z,89.39
2018-12-12T06:20:24.919Z,88.87
2018-12-12T06:21:24.582Z,88.98
2018-12-12T06:22:24.488Z,88.77
2018-12-12T06:23:24.640Z,88.56
2018-12-12T06:24:24.607Z,88.56
2018-12-12T06:25:24.809Z,88.77
2018-12-12T06:26:24.722Z,88.98
2018-12-12T06:27:25.372Z,88.77
2018-12-12T06:28:24.529Z,88.62
2018-12-12T06:29:24.445Z,88.62
2018-12-12T06:32:10.005Z,88.73
2018-12-12T06:33:09.917Z,88.84
2018-12-12T06:34:10.128Z,88.56
2018-12-12T06:35:09.725Z,88.98
2018-12-12T06:36:09.966Z,89.04
2018-12-12T06:37:09.844Z,89.29
2018-12-12T06:38:09.745Z,88.84
2018-12-12T06:39:09.653Z,89.36
2018-12-12T06:40:09.871Z,88.94
2018-12-12T06:41:09.769Z,89.29
2018-12-12T06:42:10.105Z,89.08
2018-12-12T06:43:09.585Z,88.87
2018-12-12T06:44:09.799Z,89.18
2018-12-12T06:46:33.263Z,89.08
2018-12-12T06:47:33.152Z,89.50
2018-12-12T06:48:33.108Z,89.39
2018-12-12T06:49:32.964Z,88.87
2018-12-12T06:50:32.878Z,88.46
2018-12-12T06:51:33.124Z,88.98
2018-12-12T06:52:33.002Z,89.18
2018-12-12T06:53:33.109Z,89.29
2018-12-12T06:54:33.153Z,89.29
2018-12-12T06:55:33.019Z,89.18
2018-12-12T06:56:32.924Z,89.50
2018-12-12T06:57:32.842Z,89.39
2018-12-12T06:58:33.142Z,89.18
2018-12-12T06:59:32.949Z,89.18
2018-12-12T07:01:56.152Z,89.81
2018-12-12T07:02:56.005Z,89.15
2018-12-12T07:03:55.906Z,89.39
2018-12-12T07:04:55.835Z,89.25
2018-12-12T07:05:56.037Z,89.18
2018-12-12T07:06:55.930Z,89.60
2018-12-12T07:07:55.841Z,89.56
2018-12-12T07:08:56.205Z,89.60
2018-12-12T07:09:56.148Z,89.04
2018-12-12T07:10:55.864Z,89.25
2018-12-12T07:11:56.132Z,89.18
2018-12-12T07:12:56.197Z,89.25
2018-12-12T07:13:55.888Z,89.04
2018-12-12T07:14:56.213Z,88.73
2018-12-12T07:17:20.136Z,88.84
2018-12-12T07:18:19.769Z,88.62
2018-12-12T07:19:19.675Z,88.73
2018-12-12T07:20:19.578Z,88.84
2018-12-12T07:21:20.138Z,88.31
2018-12-12T07:22:20.008Z,87.79
2018-12-12T07:23:20.171Z,87.79
2018-12-12T07:24:19.507Z,87.90
2018-12-12T07:25:19.720Z,87.79
2018-12-12T07:26:19.627Z,88.17
2018-12-12T07:27:19.527Z,88.10
2018-12-12T07:28:19.402Z,87.79
2018-12-12T07:29:20.171Z,88.00
2018-12-12T07:30:19.858Z,87.90
2018-12-12T07:32:32.163Z,88.00
2018-12-12T07:33:32.477Z,87.55
2018-12-12T07:34:32.074Z,87.69
2018-12-12T07:35:31.975Z,87.24
2018-12-12T07:36:31.881Z,87.86
2018-12-12T07:37:32.086Z,87.55
2018-12-12T07:38:32.000Z,87.34
2018-12-12T07:39:32.157Z,87.13
2018-12-12T07:40:32.144Z,86.82
2018-12-12T07:41:32.018Z,86.72
2018-12-12T07:42:31.925Z,86.61
2018-12-12T07:43:31.823Z,86.93
2018-12-12T07:44:32.052Z,87.03
2018-12-12T07:45:32.167Z,86.09
2018-12-12T07:46:32.179Z,86.72
2018-12-12T07:48:54.087Z,86.51
2018-12-12T07:49:54.008Z,87.03
2018-12-12T07:50:53.894Z,86.41
2018-12-12T07:51:53.796Z,86.30
2018-12-12T07:52:53.702Z,86.41
2018-12-12T07:53:53.913Z,86.26
2018-12-12T07:54:54.168Z,86.61
2018-12-12T07:55:53.725Z,86.19
2018-12-12T07:56:53.937Z,86.41
2018-12-12T07:57:53.842Z,86.41
2018-12-12T07:58:53.744Z,85.68
2018-12-12T07:59:53.650Z,85.74
2018-12-12T08:00:54.206Z,85.88
2018-12-12T08:01:53.768Z,85.88
2018-12-12T08:04:18.774Z,85.22
2018-12-12T08:05:17.771Z,85.53
2018-12-12T08:06:17.665Z,85.78
2018-12-12T08:07:17.560Z,85.26
2018-12-12T08:08:17.784Z,85.57
2018-12-12T08:09:17.678Z,85.47
2018-12-12T08:10:18.257Z,85.22
2018-12-12T08:11:17.445Z,85.22
2018-12-12T08:12:18.014Z,85.33
2018-12-12T08:13:17.616Z,85.22
2018-12-12T08:14:17.514Z,85.53
2018-12-12T08:15:17.419Z,84.60
2018-12-12T08:16:17.642Z,84.91
2018-12-12T08:18:30.201Z,84.56
2018-12-12T08:19:30.247Z,84.77
2018-12-12T08:20:30.206Z,85.12
2018-12-12T08:21:30.065Z,84.25
2018-12-12T08:22:30.203Z,84.60
2018-12-12T08:23:30.211Z,84.70
2018-12-12T08:24:30.083Z,84.56
2018-12-12T08:25:30.122Z,84.56
2018-12-12T08:26:29.896Z,84.67
2018-12-12T08:27:30.205Z,85.50
2018-12-12T08:28:30.008Z,84.98
2018-12-12T08:29:30.221Z,85.50
2018-12-12T08:30:30.204Z,84.98
2018-12-12T08:31:30.027Z,85.56
2018-12-12T08:32:30.206Z,85.87
2018-12-12T08:34:42.222Z,85.56
2018-12-12T08:35:41.947Z,85.46
2018-12-12T08:36:41.864Z,85.25
2018-12-12T08:37:41.748Z,85.25
2018-12-12T08:38:41.649Z,85.66
2018-12-12T08:39:41.865Z,85.46
2018-12-12T08:40:42.078Z,85.66
2018-12-12T08:41:41.677Z,85.25
2018-12-12T08:42:41.893Z,85.35
2018-12-12T08:43:41.793Z,85.42
2018-12-12T08:44:41.701Z,85.11
2018-12-12T08:45:41.909Z,85.31
2018-12-12T08:46:42.124Z,84.69
2018-12-12T08:47:42.329Z,85.52
2018-12-12T08:49:55.245Z,85.42
2018-12-12T08:50:54.952Z,85.42
2018-12-12T08:51:55.229Z,85.77
2018-12-12T08:52:54.760Z,85.11
2018-12-12T08:53:54.683Z,85.42
2018-12-12T08:54:55.196Z,85.48
2018-12-12T08:55:55.098Z,84.69
2018-12-12T08:56:54.696Z,84.80
2018-12-12T08:57:55.213Z,84.86
2018-12-12T08:58:55.111Z,85.11
2018-12-12T08:59:54.709Z,84.28
2018-12-12T09:00:55.250Z,84.55
2018-12-12T09:01:54.831Z,84.65
2018-12-12T09:02:54.739Z,84.44
2018-12-12T09:05:29.569Z,84.65
2018-12-12T09:06:28.857Z,84.23
2018-12-12T09:07:29.707Z,84.03
2018-12-12T09:08:28.680Z,83.83
2018-12-12T09:09:28.877Z,83.83
2018-12-12T09:10:28.817Z,83.58
2018-12-12T09:11:28.688Z,83.47
2018-12-12T09:12:28.597Z,83.51
2018-12-12T09:13:28.804Z,83.47
2018-12-12T09:14:28.709Z,83.72
2018-12-12T09:15:28.925Z,83.37
2018-12-12T09:16:28.489Z,83.68
2018-12-12T09:17:28.740Z,83.58
2018-12-12T09:19:51.580Z,83.58
2018-12-12T09:20:51.185Z,83.62
2018-12-12T09:21:51.263Z,83.89
2018-12-12T09:22:50.985Z,83.31
2018-12-12T09:23:50.891Z,83.72
2018-12-12T09:24:51.278Z,83.58
2018-12-12T09:25:51.268Z,83.47
2018-12-12T09:26:51.268Z,83.58
2018-12-12T09:27:51.169Z,83.72
2018-12-12T09:28:51.040Z,83.83
2018-12-12T09:29:51.301Z,84.03
2018-12-12T09:30:51.165Z,84.96
2018-12-12T09:31:51.286Z,84.55
2018-12-12T09:32:50.970Z,84.13
2018-12-12T09:35:02.304Z,83.58
2018-12-12T09:36:02.272Z,84.30
2018-12-12T09:37:02.306Z,84.09
2018-12-12T09:38:02.284Z,83.54
2018-12-12T09:39:02.274Z,83.64
2018-12-12T09:40:02.282Z,83.64
2018-12-12T09:41:02.189Z,82.78
2018-12-12T09:42:02.285Z,82.26
2018-12-12T09:43:02.610Z,81.74
2018-12-12T09:44:02.279Z,81.23
2018-12-12T09:45:02.311Z,81.29
2018-12-12T09:46:02.304Z,80.05
2018-12-12T09:47:02.237Z,79.39
2018-12-12T09:48:02.152Z,78.77
2018-12-12T09:50:15.296Z,77.87
2018-12-12T09:51:15.292Z,77.25
2018-12-12T09:52:15.290Z,77.04
2018-12-12T09:53:15.302Z,77.01
2018-12-12T09:54:15.319Z,75.77
2018-12-12T09:55:16.316Z,75.46
2018-12-12T09:56:15.327Z,75.26
2018-12-12T09:57:15.100Z,77.22
2018-12-12T09:58:15.006Z,76.25
2018-12-12T09:59:15.232Z,76.46
2018-12-12T10:00:15.298Z,75.53
2018-12-12T10:01:15.663Z,75.95
2018-12-12T10:02:15.309Z,76.04
2018-12-12T10:03:15.323Z,76.70
2018-12-12T10:05:27.351Z,76.56
2018-12-12T10:06:27.299Z,75.74
2018-12-12T10:07:27.368Z,75.91
2018-12-12T10:08:27.290Z,75.29
2018-12-12T10:09:27.169Z,74.33
2018-12-12T10:10:27.383Z,73.09
2018-12-12T10:11:27.317Z,74.33
2018-12-12T10:12:27.194Z,73.47
2018-12-12T10:13:27.105Z,73.09
2018-12-12T10:14:27.310Z,73.26
2018-12-12T10:15:27.217Z,73.16
2018-12-12T10:16:27.331Z,73.19
2018-12-12T10:17:27.340Z,73.54
2018-12-12T10:18:27.326Z,75.09
2018-12-12T10:20:39.317Z,74.57
2018-12-12T10:21:39.322Z,74.88
2018-12-12T10:22:38.851Z,74.63
2018-12-12T10:23:39.067Z,74.43
2018-12-12T10:24:38.649Z,74.15
2018-12-12T10:25:39.185Z,74.88
2018-12-12T10:26:39.342Z,75.49
2018-12-12T10:27:38.669Z,74.98
2018-12-12T10:28:39.194Z,75.05
2018-12-12T10:29:38.805Z,74.43
2018-12-12T10:30:39.022Z,73.78
2018-12-12T10:31:38.603Z,73.26
2018-12-12T10:32:38.827Z,72.96
2018-12-12T10:33:39.334Z,72.96
2018-12-12T10:36:02.337Z,72.81
2018-12-12T10:37:02.383Z,72.61
2018-12-12T10:38:02.294Z,71.92
2018-12-12T10:39:02.195Z,72.09
2018-12-12T10:40:02.109Z,72.13
2018-12-12T10:41:02.337Z,72.41
2018-12-12T10:42:02.349Z,72.54
2018-12-12T10:43:02.126Z,72.44
2018-12-12T10:44:02.036Z,73.40
2018-12-12T10:45:02.254Z,73.47
2018-12-12T10:46:02.164Z,73.30
2018-12-12T10:47:02.074Z,73.60
2018-12-12T10:48:02.365Z,73.50
2018-12-12T10:49:02.181Z,73.71
2018-12-12T10:51:13.042Z,74.57
2018-12-12T10:52:12.620Z,74.36
2018-12-12T10:53:13.161Z,73.33
2018-12-12T10:54:12.756Z,74.12
2018-12-12T10:55:12.653Z,74.33
2018-12-12T10:56:12.889Z,73.81
2018-12-12T10:57:13.079Z,73.30
2018-12-12T10:58:12.684Z,74.22
2018-12-12T10:59:12.546Z,74.36
2018-12-12T11:00:13.096Z,74.88
2018-12-12T11:01:12.715Z,73.50
2018-12-12T11:02:12.521Z,73.19
2018-12-12T11:03:12.831Z,72.88
2018-12-12T11:04:12.738Z,73.64
2018-12-12T11:06:24.216Z,73.98
2018-12-12T11:07:24.130Z,74.71
2018-12-12T11:08:24.324Z,74.84
2018-12-12T11:09:23.926Z,75.15
2018-12-12T11:10:23.827Z,75.70
2018-12-12T11:11:24.350Z,76.32
2018-12-12T11:12:24.375Z,76.01
2018-12-12T11:13:23.867Z,76.43
2018-12-12T11:14:24.086Z,75.81
2018-12-12T11:15:23.984Z,75.60
2018-12-12T11:16:23.883Z,75.81
2018-12-12T11:17:24.103Z,75.29
2018-12-12T11:18:24.324Z,76.53
2018-12-12T11:19:24.267Z,76.32
2018-12-12T11:21:49.401Z,75.60
2018-12-12T11:22:47.276Z,75.91
2018-12-12T11:23:47.178Z,76.01
2018-12-12T11:24:47.390Z,75.39
2018-12-12T11:25:47.285Z,75.29
2018-12-12T11:26:47.190Z,75.70
2018-12-12T11:27:47.402Z,75.22
2018-12-12T11:28:47.325Z,75.29
2018-12-12T11:29:47.401Z,74.63
2018-12-12T11:30:47.130Z,74.22
2018-12-12T11:31:47.345Z,74.43
2018-12-12T11:32:47.425Z,73.60
2018-12-12T11:33:50.435Z,73.36
2018-12-12T11:34:47.068Z,72.64
2018-12-12T11:37:02.415Z,72.03
2018-12-12T11:38:00.446Z,71.00
2018-12-12T11:39:00.218Z,70.24
2018-12-12T11:40:00.432Z,69.04
2018-12-12T11:41:00.300Z,67.26
2018-12-12T11:42:00.220Z,67.44
2018-12-12T11:43:00.783Z,64.95
2018-12-12T11:44:00.335Z,60.19
2018-12-12T11:45:00.237Z,58.53
2018-12-12T11:46:00.157Z,54.54
2018-12-12T11:47:00.362Z,53.36
2018-12-12T11:48:00.431Z,53.52
2018-12-12T11:49:00.430Z,53.90
2018-12-12T11:50:00.378Z,49.52
2018-12-12T11:52:13.451Z,53.42
2018-12-12T11:53:13.290Z,54.51
2018-12-12T11:54:13.216Z,55.79
2018-12-12T11:55:13.113Z,56.20
2018-12-12T11:56:13.021Z,55.33
2018-12-12T11:57:13.239Z,51.65
2018-12-12T11:58:13.427Z,50.67
2018-12-12T11:59:13.049Z,49.11
2018-12-12T12:00:13.423Z,48.75
2018-12-12T12:01:13.158Z,51.12
2018-12-12T12:02:13.384Z,53.62
2018-12-12T12:03:12.980Z,55.13
2018-12-12T12:04:13.177Z,56.90
2018-12-12T12:05:13.500Z,57.92
2018-12-12T12:07:25.427Z,59.18
2018-12-12T12:08:25.387Z,60.03
2018-12-12T12:09:25.308Z,59.88
2018-12-12T12:10:25.190Z,61.00
2018-12-12T12:11:25.106Z,61.76
2018-12-12T12:12:25.438Z,63.02
2018-12-12T12:13:25.231Z,63.22
2018-12-12T12:14:25.438Z,63.35
2018-12-12T12:15:25.446Z,64.11
2018-12-12T12:16:25.348Z,64.65
2018-12-12T12:17:25.174Z,65.58
2018-12-12T12:18:25.368Z,65.16
2018-12-12T12:19:25.448Z,65.19
2018-12-12T12:20:25.442Z,66.22
2018-12-12T12:22:48.330Z,66.87
2018-12-12T12:23:47.937Z,66.87
2018-12-12T12:24:47.832Z,67.93
2018-12-12T12:25:47.692Z,68.14
2018-12-12T12:26:48.270Z,68.76
2018-12-12T12:27:47.855Z,69.17
2018-12-12T12:28:48.073Z,69.20
2018-12-12T12:29:47.668Z,69.65
2018-12-12T12:30:47.877Z,69.54
2018-12-12T12:31:47.789Z,70.06
2018-12-12T12:32:47.616Z,71.09
2018-12-12T12:33:47.903Z,70.57
2018-12-12T12:34:48.126Z,70.51
2018-12-12T12:35:47.582Z,70.47
2018-12-12T12:37:59.499Z,71.16
2018-12-12T12:38:58.815Z,72.19
2018-12-12T12:39:58.625Z,72.30
2018-12-12T12:40:58.912Z,72.40
2018-12-12T12:41:58.817Z,72.09
2018-12-12T12:42:58.589Z,71.95
2018-12-12T12:43:58.643Z,70.99
2018-12-12T12:44:59.764Z,70.99
2018-12-12T12:45:58.565Z,70.47
2018-12-12T12:46:58.550Z,70.27
2018-12-12T12:47:59.477Z,71.30
2018-12-12T12:48:58.594Z,70.37
2018-12-12T12:49:58.589Z,69.85
2018-12-12T12:50:58.532Z,70.37
2018-12-12T12:53:12.521Z,70.30
2018-12-12T12:54:12.118Z,71.23
2018-12-12T12:55:12.483Z,71.44
2018-12-12T12:56:11.928Z,71.33
2018-12-12T12:57:11.833Z,71.85
2018-12-12T12:58:12.349Z,72.19
2018-12-12T12:59:11.954Z,71.67
2018-12-12T13:00:11.853Z,71.81
2018-12-12T13:01:12.383Z,72.43
2018-12-12T13:02:11.974Z,72.61
2018-12-12T13:03:12.179Z,72.40
2018-12-12T13:04:11.736Z,72.22
2018-12-12T13:05:11.996Z,72.57
2018-12-12T13:06:11.895Z,73.81
2018-12-12T13:08:23.534Z,73.33
2018-12-12T13:09:22.985Z,73.22
2018-12-12T13:10:22.890Z,72.67
2018-12-12T13:11:22.743Z,72.06
2018-12-12T13:12:23.517Z,72.26
2018-12-12T13:13:23.016Z,71.88
2018-12-12T13:14:22.712Z,71.95
2018-12-12T13:15:22.721Z,72.61
2018-12-12T13:16:22.931Z,72.91
2018-12-12T13:17:22.834Z,73.02
2018-12-12T13:18:22.738Z,70.26
2018-12-12T13:19:23.257Z,70.47
2018-12-12T13:20:22.855Z,70.16
2018-12-12T13:21:22.650Z,69.23
2018-12-12T13:23:33.549Z,67.71
2018-12-12T13:24:33.828Z,67.50
2018-12-12T13:25:33.393Z,67.12
2018-12-12T13:26:33.520Z,67.88
2018-12-12T13:27:33.510Z,67.77
2018-12-12T13:28:33.450Z,68.01
2018-12-12T13:29:33.517Z,68.49
2018-12-12T13:30:33.516Z,68.43
2018-12-12T13:31:33.475Z,68.74
2018-12-12T13:32:33.378Z,69.04
2018-12-12T13:33:33.517Z,69.04
2018-12-12T13:34:33.494Z,68.94
2018-12-12T13:35:33.526Z,69.87
2018-12-12T13:36:33.310Z,69.87
2018-12-12T13:38:45.464Z,69.87
2018-12-12T13:39:45.577Z,69.25
2018-12-12T13:40:45.834Z,69.67
2018-12-12T13:41:44.792Z,69.15
2018-12-12T13:42:45.089Z,69.15
2018-12-12T13:43:45.267Z,69.35
2018-12-12T13:44:44.767Z,67.80
2018-12-12T13:45:44.742Z,67.70
2018-12-12T13:46:45.533Z,67.46
2018-12-12T13:47:44.869Z,67.57
2018-12-12T13:48:44.710Z,67.57
2018-12-12T13:49:44.979Z,67.88
2018-12-12T13:50:45.194Z,67.33
2018-12-12T13:51:44.675Z,67.12
2018-12-12T13:53:57.549Z,67.33
2018-12-12T13:54:56.552Z,67.12
2018-12-12T13:55:56.386Z,67.64
2018-12-12T13:56:56.547Z,67.74
2018-12-12T13:57:56.193Z,68.36
2018-12-12T13:58:56.405Z,68.46
2018-12-12T13:59:56.306Z,69.09
2018-12-12T14:00:56.628Z,69.09
2018-12-12T14:01:56.424Z,69.19
2018-12-12T14:02:56.542Z,69.60